sensor_id;sensor_type;location;lat;lon;timestamp;P1;durP1;ratioP1;P2;durP2;ratioP2
7939;SDS011;4015;48.888;9.226;2022-11-13T00:02:23;19.70;;;12.00;;
7939;SDS011;4015;48.888;9.226;2022-11-13T00:04:48;30.93;;;13.57;;
7939;SDS011;4015;48.888;9.226;2022-11-13T00:07:13;19.30;;;12.80;;
7939;SDS011;4015;48.888;9.226;2022-11-13T00:09:39;39.83;;;13.50;;
7939;SDS011;4015;48.888;9.226;2022-11-13T00:12:04;25.23;;;12.70;;
7939;SDS011;4015;48.888;9.226;2022-11-13T00:14:29;73.23;;;15.63;;
7939;SDS011;4015;48.888;9.226;2022-11-13T00:16:55;47.10;;;15.40;;
7939;SDS011;4015;48.888;9.226;2022-11-13T00:19:20;24.10;;;13.67;;
7939;SDS011;4015;48.888;9.226;2022-11-13T00:21:45;29.40;;;13.20;;
7939;SDS011;4015;48.888;9.226;2022-11-13T00:24:11;20.13;;;12.97;;
7939;SDS011;4015;48.888;9.226;2022-11-13T00:26:36;40.20;;;14.33;;
7939;SDS011;4015;48.888;9.226;2022-11-13T00:29:03;32.57;;;14.20;;
7939;SDS011;4015;48.888;9.226;2022-11-13T00:31:29;23.13;;;13.13;;
7939;SDS011;4015;48.888;9.226;2022-11-13T00:33:54;47.67;;;13.63;;
7939;SDS011;4015;48.888;9.226;2022-11-13T00:36:21;59.63;;;14.73;;
7939;SDS011;4015;48.888;9.226;2022-11-13T00:38:49;37.33;;;13.70;;
7939;SDS011;4015;48.888;9.226;2022-11-13T00:41:15;45.20;;;14.13;;
7939;SDS011;4015;48.888;9.226;2022-11-13T00:43:41;21.83;;;12.40;;
7939;SDS011;4015;48.888;9.226;2022-11-13T00:46:07;41.30;;;12.50;;
7939;SDS011;4015;48.888;9.226;2022-11-13T00:48:33;31.20;;;11.87;;
7939;SDS011;4015;48.888;9.226;2022-11-13T00:50:59;27.60;;;11.67;;
7939;SDS011;4015;48.888;9.226;2022-11-13T00:53:24;21.43;;;11.60;;
7939;SDS011;4015;48.888;9.226;2022-11-13T00:55:50;37.47;;;12.47;;
7939;SDS011;4015;48.888;9.226;2022-11-13T00:58:15;35.43;;;11.73;;
7939;SDS011;4015;48.888;9.226;2022-11-13T01:00:42;38.00;;;12.37;;
7939;SDS011;4015;48.888;9.226;2022-11-13T01:03:09;22.30;;;11.20;;
7939;SDS011;4015;48.888;9.226;2022-11-13T01:05:39;26.63;;;12.23;;
7939;SDS011;4015;48.888;9.226;2022-11-13T01:08:06;29.87;;;11.93;;
7939;SDS011;4015;48.888;9.226;2022-11-13T01:10:33;28.30;;;12.03;;
7939;SDS011;4015;48.888;9.226;2022-11-13T01:13:02;18.10;;;9.93;;
7939;SDS011;4015;48.888;9.226;2022-11-13T01:15:27;62.37;;;13.63;;
7939;SDS011;4015;48.888;9.226;2022-11-13T01:17:52;20.50;;;10.00;;
7939;SDS011;4015;48.888;9.226;2022-11-13T01:20:19;31.80;;;10.57;;
7939;SDS011;4015;48.888;9.226;2022-11-13T01:22:45;37.83;;;11.13;;
7939;SDS011;4015;48.888;9.226;2022-11-13T01:25:11;21.10;;;11.07;;
7939;SDS011;4015;48.888;9.226;2022-11-13T01:27:36;46.00;;;11.43;;
7939;SDS011;4015;48.888;9.226;2022-11-13T01:30:03;44.83;;;11.80;;
7939;SDS011;4015;48.888;9.226;2022-11-13T01:32:29;57.20;;;12.13;;
7939;SDS011;4015;48.888;9.226;2022-11-13T01:34:54;28.77;;;10.43;;
7939;SDS011;4015;48.888;9.226;2022-11-13T01:37:19;38.73;;;12.13;;
7939;SDS011;4015;48.888;9.226;2022-11-13T01:39:44;47.63;;;11.43;;
7939;SDS011;4015;48.888;9.226;2022-11-13T01:42:10;56.23;;;12.43;;
7939;SDS011;4015;48.888;9.226;2022-11-13T01:44:55;40.10;;;10.80;;
7939;SDS011;4015;48.888;9.226;2022-11-13T01:47:23;63.30;;;11.57;;
7939;SDS011;4015;48.888;9.226;2022-11-13T01:49:50;52.03;;;10.93;;
7939;SDS011;4015;48.888;9.226;2022-11-13T01:52:41;38.53;;;10.13;;
7939;SDS011;4015;48.888;9.226;2022-11-13T01:55:10;24.30;;;8.50;;
7939;SDS011;4015;48.888;9.226;2022-11-13T01:57:38;50.20;;;9.87;;
7939;SDS011;4015;48.888;9.226;2022-11-13T02:00:06;40.13;;;9.13;;
7939;SDS011;4015;48.888;9.226;2022-11-13T02:02:33;40.60;;;10.27;;
7939;SDS011;4015;48.888;9.226;2022-11-13T02:04:59;37.93;;;9.13;;
7939;SDS011;4015;48.888;9.226;2022-11-13T02:07:25;44.73;;;9.73;;
7939;SDS011;4015;48.888;9.226;2022-11-13T02:09:51;26.30;;;9.50;;
7939;SDS011;4015;48.888;9.226;2022-11-13T02:12:20;38.50;;;9.10;;
7939;SDS011;4015;48.888;9.226;2022-11-13T02:14:52;47.10;;;9.70;;
7939;SDS011;4015;48.888;9.226;2022-11-13T02:17:23;52.07;;;9.53;;
7939;SDS011;4015;48.888;9.226;2022-11-13T02:19:54;26.83;;;8.23;;
7939;SDS011;4015;48.888;9.226;2022-11-13T02:22:25;33.33;;;8.93;;
7939;SDS011;4015;48.888;9.226;2022-11-13T02:24:59;48.87;;;9.00;;
7939;SDS011;4015;48.888;9.226;2022-11-13T02:27:34;37.27;;;9.37;;
7939;SDS011;4015;48.888;9.226;2022-11-13T02:30:10;25.57;;;7.87;;
7939;SDS011;4015;48.888;9.226;2022-11-13T02:32:43;37.60;;;9.13;;
7939;SDS011;4015;48.888;9.226;2022-11-13T02:35:11;39.40;;;8.83;;
7939;SDS011;4015;48.888;9.226;2022-11-13T02:37:39;49.47;;;10.27;;
7939;SDS011;4015;48.888;9.226;2022-11-13T02:40:04;127.20;;;13.93;;
7939;SDS011;4015;48.888;9.226;2022-11-13T02:42:30;54.97;;;10.87;;
7939;SDS011;4015;48.888;9.226;2022-11-13T02:44:55;92.63;;;11.87;;
7939;SDS011;4015;48.888;9.226;2022-11-13T02:47:20;74.07;;;10.90;;
7939;SDS011;4015;48.888;9.226;2022-11-13T02:49:46;62.40;;;10.50;;
7939;SDS011;4015;48.888;9.226;2022-11-13T02:52:11;38.13;;;10.47;;
7939;SDS011;4015;48.888;9.226;2022-11-13T02:54:36;51.67;;;9.40;;
7939;SDS011;4015;48.888;9.226;2022-11-13T02:57:02;41.60;;;9.57;;
7939;SDS011;4015;48.888;9.226;2022-11-13T02:59:27;63.20;;;10.00;;
7939;SDS011;4015;48.888;9.226;2022-11-13T03:01:52;24.73;;;10.07;;
7939;SDS011;4015;48.888;9.226;2022-11-13T03:04:18;47.47;;;9.73;;
7939;SDS011;4015;48.888;9.226;2022-11-13T03:06:43;49.17;;;10.20;;
7939;SDS011;4015;48.888;9.226;2022-11-13T03:09:08;47.90;;;9.90;;
7939;SDS011;4015;48.888;9.226;2022-11-13T03:11:34;49.77;;;10.60;;
7939;SDS011;4015;48.888;9.226;2022-11-13T03:13:59;118.27;;;12.63;;
7939;SDS011;4015;48.888;9.226;2022-11-13T03:16:24;53.03;;;10.87;;
7939;SDS011;4015;48.888;9.226;2022-11-13T03:18:50;52.93;;;11.83;;
7939;SDS011;4015;48.888;9.226;2022-11-13T03:21:15;40.60;;;8.97;;
7939;SDS011;4015;48.888;9.226;2022-11-13T03:23:41;65.67;;;10.97;;
7939;SDS011;4015;48.888;9.226;2022-11-13T03:26:09;61.57;;;10.03;;
7939;SDS011;4015;48.888;9.226;2022-11-13T03:28:36;86.63;;;11.40;;
7939;SDS011;4015;48.888;9.226;2022-11-13T03:31:02;71.13;;;12.83;;
7939;SDS011;4015;48.888;9.226;2022-11-13T03:33:27;95.73;;;15.07;;
7939;SDS011;4015;48.888;9.226;2022-11-13T03:35:53;79.60;;;13.00;;
7939;SDS011;4015;48.888;9.226;2022-11-13T03:38:19;78.60;;;13.13;;
7939;SDS011;4015;48.888;9.226;2022-11-13T03:40:44;64.93;;;12.13;;
7939;SDS011;4015;48.888;9.226;2022-11-13T03:43:10;70.03;;;10.97;;
7939;SDS011;4015;48.888;9.226;2022-11-13T03:45:35;121.00;;;13.43;;
7939;SDS011;4015;48.888;9.226;2022-11-13T03:48:00;89.73;;;12.23;;
7939;SDS011;4015;48.888;9.226;2022-11-13T03:50:26;101.37;;;11.37;;
7939;SDS011;4015;48.888;9.226;2022-11-13T03:52:51;76.43;;;11.97;;
7939;SDS011;4015;48.888;9.226;2022-11-13T03:55:17;87.50;;;11.83;;
7939;SDS011;4015;48.888;9.226;2022-11-13T03:57:42;84.90;;;14.70;;
7939;SDS011;4015;48.888;9.226;2022-11-13T04:00:08;97.40;;;12.13;;
7939;SDS011;4015;48.888;9.226;2022-11-13T04:02:34;80.83;;;11.83;;
7939;SDS011;4015;48.888;9.226;2022-11-13T04:04:59;64.60;;;11.03;;
7939;SDS011;4015;48.888;9.226;2022-11-13T04:07:25;41.10;;;9.07;;
7939;SDS011;4015;48.888;9.226;2022-11-13T04:09:50;66.13;;;9.60;;
7939;SDS011;4015;48.888;9.226;2022-11-13T04:12:15;113.03;;;13.10;;
7939;SDS011;4015;48.888;9.226;2022-11-13T04:14:41;41.80;;;10.40;;
7939;SDS011;4015;48.888;9.226;2022-11-13T04:17:06;51.73;;;9.97;;
7939;SDS011;4015;48.888;9.226;2022-11-13T04:19:31;40.97;;;9.27;;
7939;SDS011;4015;48.888;9.226;2022-11-13T04:21:57;38.93;;;8.17;;
7939;SDS011;4015;48.888;9.226;2022-11-13T04:24:22;84.77;;;10.70;;
7939;SDS011;4015;48.888;9.226;2022-11-13T04:26:47;54.03;;;8.90;;
7939;SDS011;4015;48.888;9.226;2022-11-13T04:29:13;34.77;;;8.93;;
7939;SDS011;4015;48.888;9.226;2022-11-13T04:31:38;54.43;;;8.97;;
7939;SDS011;4015;48.888;9.226;2022-11-13T04:34:03;53.73;;;8.80;;
7939;SDS011;4015;48.888;9.226;2022-11-13T04:36:29;34.17;;;9.17;;
7939;SDS011;4015;48.888;9.226;2022-11-13T04:38:54;40.70;;;9.07;;
7939;SDS011;4015;48.888;9.226;2022-11-13T04:41:19;30.17;;;7.83;;
7939;SDS011;4015;48.888;9.226;2022-11-13T04:44:03;36.07;;;8.60;;
7939;SDS011;4015;48.888;9.226;2022-11-13T04:46:29;32.50;;;8.07;;
7939;SDS011;4015;48.888;9.226;2022-11-13T04:48:54;19.57;;;8.37;;
7939;SDS011;4015;48.888;9.226;2022-11-13T04:51:20;19.37;;;8.33;;
7939;SDS011;4015;48.888;9.226;2022-11-13T04:53:46;34.23;;;8.50;;
7939;SDS011;4015;48.888;9.226;2022-11-13T04:56:11;26.63;;;8.53;;
7939;SDS011;4015;48.888;9.226;2022-11-13T04:58:36;57.50;;;9.47;;
7939;SDS011;4015;48.888;9.226;2022-11-13T05:01:01;24.77;;;8.53;;
7939;SDS011;4015;48.888;9.226;2022-11-13T05:03:28;91.40;;;13.27;;
7939;SDS011;4015;48.888;9.226;2022-11-13T05:06:00;69.13;;;12.43;;
7939;SDS011;4015;48.888;9.226;2022-11-13T05:08:29;96.57;;;12.73;;
7939;SDS011;4015;48.888;9.226;2022-11-13T05:10:55;26.30;;;9.13;;
7939;SDS011;4015;48.888;9.226;2022-11-13T05:13:20;31.53;;;9.77;;
7939;SDS011;4015;48.888;9.226;2022-11-13T05:15:46;22.07;;;10.10;;
7939;SDS011;4015;48.888;9.226;2022-11-13T05:18:11;66.10;;;11.30;;
7939;SDS011;4015;48.888;9.226;2022-11-13T05:20:36;78.13;;;11.97;;
7939;SDS011;4015;48.888;9.226;2022-11-13T05:23:02;82.47;;;10.90;;
7939;SDS011;4015;48.888;9.226;2022-11-13T05:25:27;87.87;;;11.70;;
7939;SDS011;4015;48.888;9.226;2022-11-13T05:27:56;51.67;;;9.43;;
7939;SDS011;4015;48.888;9.226;2022-11-13T05:30:21;50.47;;;10.57;;
7939;SDS011;4015;48.888;9.226;2022-11-13T05:32:47;76.67;;;10.40;;
7939;SDS011;4015;48.888;9.226;2022-11-13T05:35:12;74.30;;;11.67;;
7939;SDS011;4015;48.888;9.226;2022-11-13T05:37:37;64.07;;;10.50;;
7939;SDS011;4015;48.888;9.226;2022-11-13T05:40:04;101.50;;;14.30;;
7939;SDS011;4015;48.888;9.226;2022-11-13T05:42:32;52.60;;;9.60;;
7939;SDS011;4015;48.888;9.226;2022-11-13T05:44:57;100.80;;;11.90;;
7939;SDS011;4015;48.888;9.226;2022-11-13T05:47:23;119.97;;;14.40;;
7939;SDS011;4015;48.888;9.226;2022-11-13T05:49:48;61.83;;;10.83;;
7939;SDS011;4015;48.888;9.226;2022-11-13T05:52:13;48.60;;;9.83;;
7939;SDS011;4015;48.888;9.226;2022-11-13T05:54:39;59.43;;;11.47;;
7939;SDS011;4015;48.888;9.226;2022-11-13T05:57:04;60.70;;;11.23;;
7939;SDS011;4015;48.888;9.226;2022-11-13T05:59:29;41.67;;;10.43;;
7939;SDS011;4015;48.888;9.226;2022-11-13T06:01:55;68.60;;;11.73;;
7939;SDS011;4015;48.888;9.226;2022-11-13T06:04:20;32.57;;;9.07;;
7939;SDS011;4015;48.888;9.226;2022-11-13T06:06:46;40.23;;;9.83;;
7939;SDS011;4015;48.888;9.226;2022-11-13T06:09:12;93.60;;;12.10;;
7939;SDS011;4015;48.888;9.226;2022-11-13T06:11:40;48.47;;;9.50;;
7939;SDS011;4015;48.888;9.226;2022-11-13T06:14:05;87.43;;;11.23;;
7939;SDS011;4015;48.888;9.226;2022-11-13T06:16:35;68.47;;;9.40;;
7939;SDS011;4015;48.888;9.226;2022-11-13T06:19:03;69.93;;;10.37;;
7939;SDS011;4015;48.888;9.226;2022-11-13T06:21:30;39.40;;;7.10;;
7939;SDS011;4015;48.888;9.226;2022-11-13T06:23:57;66.47;;;8.93;;
7939;SDS011;4015;48.888;9.226;2022-11-13T06:26:24;77.20;;;13.00;;
7939;SDS011;4015;48.888;9.226;2022-11-13T06:28:51;63.33;;;10.87;;
7939;SDS011;4015;48.888;9.226;2022-11-13T06:31:18;87.97;;;9.47;;
7939;SDS011;4015;48.888;9.226;2022-11-13T06:33:48;14.17;;;7.20;;
7939;SDS011;4015;48.888;9.226;2022-11-13T06:36:15;36.63;;;8.77;;
7939;SDS011;4015;48.888;9.226;2022-11-13T06:38:42;37.93;;;8.40;;
7939;SDS011;4015;48.888;9.226;2022-11-13T06:41:09;41.47;;;9.17;;
7939;SDS011;4015;48.888;9.226;2022-11-13T06:43:37;32.37;;;8.07;;
7939;SDS011;4015;48.888;9.226;2022-11-13T06:46:03;66.60;;;9.10;;
7939;SDS011;4015;48.888;9.226;2022-11-13T06:48:30;61.07;;;7.80;;
7939;SDS011;4015;48.888;9.226;2022-11-13T06:51:03;33.67;;;7.33;;
7939;SDS011;4015;48.888;9.226;2022-11-13T06:53:30;77.87;;;9.17;;
7939;SDS011;4015;48.888;9.226;2022-11-13T06:55:56;50.47;;;9.03;;
7939;SDS011;4015;48.888;9.226;2022-11-13T06:58:21;65.37;;;9.23;;
7939;SDS011;4015;48.888;9.226;2022-11-13T07:00:47;60.73;;;9.70;;
7939;SDS011;4015;48.888;9.226;2022-11-13T07:03:16;38.47;;;8.67;;
7939;SDS011;4015;48.888;9.226;2022-11-13T07:05:43;64.17;;;8.27;;
7939;SDS011;4015;48.888;9.226;2022-11-13T07:08:09;89.07;;;9.10;;
7939;SDS011;4015;48.888;9.226;2022-11-13T07:10:34;44.97;;;7.53;;
7939;SDS011;4015;48.888;9.226;2022-11-13T07:13:00;101.77;;;9.80;;
7939;SDS011;4015;48.888;9.226;2022-11-13T07:15:26;69.80;;;8.03;;
7939;SDS011;4015;48.888;9.226;2022-11-13T07:17:52;51.90;;;9.07;;
7939;SDS011;4015;48.888;9.226;2022-11-13T07:20:17;65.83;;;8.37;;
7939;SDS011;4015;48.888;9.226;2022-11-13T07:22:43;55.80;;;8.77;;
7939;SDS011;4015;48.888;9.226;2022-11-13T07:25:08;28.93;;;7.13;;
7939;SDS011;4015;48.888;9.226;2022-11-13T07:27:34;30.33;;;7.57;;
7939;SDS011;4015;48.888;9.226;2022-11-13T07:29:59;22.33;;;6.70;;
7939;SDS011;4015;48.888;9.226;2022-11-13T07:32:24;43.33;;;7.80;;
7939;SDS011;4015;48.888;9.226;2022-11-13T07:34:50;56.13;;;8.47;;
7939;SDS011;4015;48.888;9.226;2022-11-13T07:37:15;25.40;;;7.57;;
7939;SDS011;4015;48.888;9.226;2022-11-13T07:39:41;59.30;;;7.63;;
7939;SDS011;4015;48.888;9.226;2022-11-13T07:42:06;34.90;;;7.17;;
7939;SDS011;4015;48.888;9.226;2022-11-13T07:44:31;56.90;;;7.97;;
7939;SDS011;4015;48.888;9.226;2022-11-13T07:46:57;76.50;;;9.67;;
7939;SDS011;4015;48.888;9.226;2022-11-13T07:49:22;57.83;;;8.37;;
7939;SDS011;4015;48.888;9.226;2022-11-13T07:51:48;41.53;;;7.97;;
7939;SDS011;4015;48.888;9.226;2022-11-13T07:54:13;33.90;;;6.93;;
7939;SDS011;4015;48.888;9.226;2022-11-13T07:56:39;36.87;;;8.07;;
7939;SDS011;4015;48.888;9.226;2022-11-13T07:59:04;36.77;;;9.87;;
7939;SDS011;4015;48.888;9.226;2022-11-13T08:01:30;29.77;;;8.07;;
7939;SDS011;4015;48.888;9.226;2022-11-13T08:03:55;43.23;;;7.47;;
7939;SDS011;4015;48.888;9.226;2022-11-13T08:06:20;62.73;;;8.63;;
7939;SDS011;4015;48.888;9.226;2022-11-13T08:08:48;48.53;;;9.67;;
7939;SDS011;4015;48.888;9.226;2022-11-13T08:11:17;26.47;;;8.73;;
7939;SDS011;4015;48.888;9.226;2022-11-13T08:13:42;36.90;;;8.03;;
7939;SDS011;4015;48.888;9.226;2022-11-13T08:16:07;54.13;;;8.97;;
7939;SDS011;4015;48.888;9.226;2022-11-13T08:18:33;40.37;;;8.17;;
7939;SDS011;4015;48.888;9.226;2022-11-13T08:21:02;54.23;;;8.50;;
7939;SDS011;4015;48.888;9.226;2022-11-13T08:23:28;41.60;;;8.97;;
7939;SDS011;4015;48.888;9.226;2022-11-13T08:25:54;14.93;;;8.27;;
7939;SDS011;4015;48.888;9.226;2022-11-13T08:28:20;20.17;;;8.10;;
7939;SDS011;4015;48.888;9.226;2022-11-13T08:30:45;17.90;;;8.03;;
7939;SDS011;4015;48.888;9.226;2022-11-13T08:33:11;42.20;;;8.30;;
7939;SDS011;4015;48.888;9.226;2022-11-13T08:35:36;35.70;;;9.17;;
7939;SDS011;4015;48.888;9.226;2022-11-13T08:38:05;40.80;;;9.07;;
7939;SDS011;4015;48.888;9.226;2022-11-13T08:40:32;31.60;;;8.40;;
7939;SDS011;4015;48.888;9.226;2022-11-13T08:43:01;26.23;;;8.63;;
7939;SDS011;4015;48.888;9.226;2022-11-13T08:45:28;17.20;;;9.07;;
7939;SDS011;4015;48.888;9.226;2022-11-13T08:47:58;24.17;;;8.40;;
7939;SDS011;4015;48.888;9.226;2022-11-13T08:50:27;22.77;;;8.37;;
7939;SDS011;4015;48.888;9.226;2022-11-13T08:52:55;11.20;;;7.90;;
7939;SDS011;4015;48.888;9.226;2022-11-13T08:55:22;10.37;;;7.53;;
7939;SDS011;4015;48.888;9.226;2022-11-13T08:57:48;9.63;;;7.87;;
7939;SDS011;4015;48.888;9.226;2022-11-13T09:00:14;17.87;;;7.73;;
7939;SDS011;4015;48.888;9.226;2022-11-13T09:02:40;8.33;;;7.30;;
7939;SDS011;4015;48.888;9.226;2022-11-13T09:05:06;10.00;;;7.83;;
7939;SDS011;4015;48.888;9.226;2022-11-13T09:07:32;9.43;;;7.13;;
7939;SDS011;4015;48.888;9.226;2022-11-13T09:09:57;8.13;;;7.33;;
7939;SDS011;4015;48.888;9.226;2022-11-13T09:12:22;9.93;;;7.30;;
7939;SDS011;4015;48.888;9.226;2022-11-13T09:14:48;9.10;;;7.43;;
7939;SDS011;4015;48.888;9.226;2022-11-13T09:17:13;8.53;;;7.43;;
7939;SDS011;4015;48.888;9.226;2022-11-13T09:19:38;10.30;;;7.17;;
7939;SDS011;4015;48.888;9.226;2022-11-13T09:22:04;12.63;;;7.60;;
7939;SDS011;4015;48.888;9.226;2022-11-13T09:24:30;9.80;;;7.57;;
7939;SDS011;4015;48.888;9.226;2022-11-13T09:26:55;13.00;;;9.80;;
7939;SDS011;4015;48.888;9.226;2022-11-13T09:29:20;13.57;;;8.83;;
7939;SDS011;4015;48.888;9.226;2022-11-13T09:31:47;7.93;;;7.13;;
7939;SDS011;4015;48.888;9.226;2022-11-13T09:34:13;8.47;;;7.57;;
7939;SDS011;4015;48.888;9.226;2022-11-13T09:36:38;9.30;;;8.40;;
7939;SDS011;4015;48.888;9.226;2022-11-13T09:39:04;8.03;;;7.27;;
7939;SDS011;4015;48.888;9.226;2022-11-13T09:44:26;7.23;;;6.53;;
7939;SDS011;4015;48.888;9.226;2022-11-13T09:47:01;7.50;;;6.80;;
7939;SDS011;4015;48.888;9.226;2022-11-13T09:49:36;8.00;;;7.20;;
7939;SDS011;4015;48.888;9.226;2022-11-13T09:52:18;7.10;;;6.43;;
7939;SDS011;4015;48.888;9.226;2022-11-13T09:54:47;7.13;;;6.43;;
7939;SDS011;4015;48.888;9.226;2022-11-13T10:08:06;8.47;;;7.57;;
7939;SDS011;4015;48.888;9.226;2022-11-13T10:10:48;8.70;;;7.63;;
7939;SDS011;4015;48.888;9.226;2022-11-13T10:13:24;8.53;;;7.37;;
7939;SDS011;4015;48.888;9.226;2022-11-13T10:15:51;8.03;;;7.23;;
7939;SDS011;4015;48.888;9.226;2022-11-13T10:18:25;7.30;;;6.60;;
7939;SDS011;4015;48.888;9.226;2022-11-13T10:21:03;7.53;;;6.70;;
7939;SDS011;4015;48.888;9.226;2022-11-13T10:23:37;8.97;;;8.07;;
7939;SDS011;4015;48.888;9.226;2022-11-13T10:26:13;9.17;;;8.27;;
7939;SDS011;4015;48.888;9.226;2022-11-13T10:28:40;8.60;;;7.70;;
7939;SDS011;4015;48.888;9.226;2022-11-13T10:31:08;8.73;;;7.93;;
7939;SDS011;4015;48.888;9.226;2022-11-13T10:33:34;6.73;;;6.03;;
7939;SDS011;4015;48.888;9.226;2022-11-13T10:36:07;6.30;;;5.70;;
7939;SDS011;4015;48.888;9.226;2022-11-13T10:38:43;6.43;;;5.83;;
7939;SDS011;4015;48.888;9.226;2022-11-13T10:41:18;6.60;;;6.07;;
7939;SDS011;4015;48.888;9.226;2022-11-13T10:43:51;6.28;;;5.68;;
7939;SDS011;4015;48.888;9.226;2022-11-13T10:46:21;6.25;;;5.65;;
7939;SDS011;4015;48.888;9.226;2022-11-13T10:48:48;6.65;;;6.15;;
7939;SDS011;4015;48.888;9.226;2022-11-13T10:53:42;5.70;;;5.28;;
7939;SDS011;4015;48.888;9.226;2022-11-13T10:56:27;5.85;;;5.20;;
7939;SDS011;4015;48.888;9.226;2022-11-13T11:01:43;5.30;;;4.90;;
7939;SDS011;4015;48.888;9.226;2022-11-13T11:04:23;6.07;;;5.57;;
7939;SDS011;4015;48.888;9.226;2022-11-13T11:06:51;7.05;;;6.38;;
7939;SDS011;4015;48.888;9.226;2022-11-13T11:14:53;6.32;;;5.82;;
7939;SDS011;4015;48.888;9.226;2022-11-13T11:20:03;6.80;;;6.20;;
7939;SDS011;4015;48.888;9.226;2022-11-13T11:22:50;7.20;;;6.60;;
7939;SDS011;4015;48.888;9.226;2022-11-13T11:25:38;7.47;;;6.88;;
7939;SDS011;4015;48.888;9.226;2022-11-13T11:28:18;7.57;;;6.88;;
7939;SDS011;4015;48.888;9.226;2022-11-13T11:31:03;7.07;;;6.47;;
7939;SDS011;4015;48.888;9.226;2022-11-13T11:34:19;7.03;;;6.33;;
7939;SDS011;4015;48.888;9.226;2022-11-13T11:36:35;6.37;;;5.77;;
7939;SDS011;4015;48.888;9.226;2022-11-13T11:41:43;7.17;;;6.53;;
7939;SDS011;4015;48.888;9.226;2022-11-13T11:47:14;7.83;;;6.43;;
7939;SDS011;4015;48.888;9.226;2022-11-13T11:49:44;7.87;;;7.10;;
7939;SDS011;4015;48.888;9.226;2022-11-13T12:00:04;7.17;;;6.57;;
7939;SDS011;4015;48.888;9.226;2022-11-13T12:05:33;7.13;;;6.43;;
7939;SDS011;4015;48.888;9.226;2022-11-13T12:08:21;6.23;;;5.70;;
7939;SDS011;4015;48.888;9.226;2022-11-13T12:13:29;7.33;;;6.67;;
7939;SDS011;4015;48.888;9.226;2022-11-13T12:21:23;6.33;;;5.73;;
7939;SDS011;4015;48.888;9.226;2022-11-13T12:34:42;6.97;;;6.27;;
7939;SDS011;4015;48.888;9.226;2022-11-13T12:37:12;6.67;;;6.07;;
7939;SDS011;4015;48.888;9.226;2022-11-13T12:39:46;6.97;;;6.37;;
7939;SDS011;4015;48.888;9.226;2022-11-13T12:42:30;7.47;;;6.77;;
7939;SDS011;4015;48.888;9.226;2022-11-13T12:47:29;7.40;;;6.67;;
7939;SDS011;4015;48.888;9.226;2022-11-13T12:49:58;7.33;;;6.63;;
7939;SDS011;4015;48.888;9.226;2022-11-13T12:52:31;6.90;;;6.30;;
7939;SDS011;4015;48.888;9.226;2022-11-13T12:55:07;7.47;;;6.77;;
7939;SDS011;4015;48.888;9.226;2022-11-13T12:57:48;6.93;;;6.33;;
7939;SDS011;4015;48.888;9.226;2022-11-13T13:00:22;7.50;;;6.80;;
7939;SDS011;4015;48.888;9.226;2022-11-13T13:02:54;8.43;;;6.90;;
7939;SDS011;4015;48.888;9.226;2022-11-13T13:05:24;8.13;;;7.33;;
7939;SDS011;4015;48.888;9.226;2022-11-13T13:10:50;7.53;;;6.70;;
7939;SDS011;4015;48.888;9.226;2022-11-13T13:16:08;9.53;;;7.03;;
7939;SDS011;4015;48.888;9.226;2022-11-13T13:18:35;7.30;;;6.63;;
7939;SDS011;4015;48.888;9.226;2022-11-13T13:21:12;7.63;;;6.27;;
7939;SDS011;4015;48.888;9.226;2022-11-13T13:23:40;7.63;;;6.93;;
7939;SDS011;4015;48.888;9.226;2022-11-13T13:26:24;6.83;;;6.13;;
7939;SDS011;4015;48.888;9.226;2022-11-13T13:28:55;8.00;;;7.00;;
7939;SDS011;4015;48.888;9.226;2022-11-13T13:31:30;7.67;;;6.73;;
7939;SDS011;4015;48.888;9.226;2022-11-13T13:47:34;7.70;;;6.90;;
7939;SDS011;4015;48.888;9.226;2022-11-13T13:50:06;7.70;;;7.00;;
7939;SDS011;4015;48.888;9.226;2022-11-13T13:52:38;33.90;;;27.30;;
7939;SDS011;4015;48.888;9.226;2022-11-13T13:55:05;7.53;;;6.83;;
7939;SDS011;4015;48.888;9.226;2022-11-13T13:57:31;7.60;;;6.83;;
7939;SDS011;4015;48.888;9.226;2022-11-13T13:59:58;6.87;;;6.17;;
7939;SDS011;4015;48.888;9.226;2022-11-13T14:02:24;8.50;;;6.50;;
7939;SDS011;4015;48.888;9.226;2022-11-13T14:04:53;7.40;;;6.70;;
7939;SDS011;4015;48.888;9.226;2022-11-13T14:07:27;7.57;;;6.77;;
7939;SDS011;4015;48.888;9.226;2022-11-13T14:12:43;7.17;;;6.47;;
7939;SDS011;4015;48.888;9.226;2022-11-13T14:15:20;7.77;;;6.97;;
7939;SDS011;4015;48.888;9.226;2022-11-13T14:20:46;7.60;;;6.87;;
7939;SDS011;4015;48.888;9.226;2022-11-13T14:23:20;7.87;;;7.17;;
7939;SDS011;4015;48.888;9.226;2022-11-13T14:25:53;7.87;;;7.17;;
7939;SDS011;4015;48.888;9.226;2022-11-13T14:28:20;8.20;;;7.43;;
7939;SDS011;4015;48.888;9.226;2022-11-13T14:30:56;8.17;;;7.37;;
7939;SDS011;4015;48.888;9.226;2022-11-13T14:33:30;8.60;;;7.73;;
7939;SDS011;4015;48.888;9.226;2022-11-13T14:35:59;8.17;;;7.47;;
7939;SDS011;4015;48.888;9.226;2022-11-13T14:38:26;8.27;;;6.80;;
7939;SDS011;4015;48.888;9.226;2022-11-13T14:40:55;7.60;;;6.90;;
7939;SDS011;4015;48.888;9.226;2022-11-13T14:43:22;8.60;;;7.43;;
7939;SDS011;4015;48.888;9.226;2022-11-13T14:45:55;10.23;;;8.43;;
7939;SDS011;4015;48.888;9.226;2022-11-13T14:48:25;32.70;;;26.50;;
7939;SDS011;4015;48.888;9.226;2022-11-13T14:50:57;40.10;;;32.80;;
7939;SDS011;4015;48.888;9.226;2022-11-13T14:53:31;17.20;;;14.67;;
7939;SDS011;4015;48.888;9.226;2022-11-13T14:56:02;8.67;;;7.77;;
7939;SDS011;4015;48.888;9.226;2022-11-13T14:58:29;7.73;;;6.97;;
7939;SDS011;4015;48.888;9.226;2022-11-13T15:00:57;7.83;;;7.13;;
7939;SDS011;4015;48.888;9.226;2022-11-13T15:03:35;8.37;;;7.53;;
7939;SDS011;4015;48.888;9.226;2022-11-13T15:06:00;8.60;;;7.80;;
7939;SDS011;4015;48.888;9.226;2022-11-13T15:08:25;8.97;;;7.47;;
7939;SDS011;4015;48.888;9.226;2022-11-13T15:10:52;8.90;;;8.10;;
7939;SDS011;4015;48.888;9.226;2022-11-13T15:13:19;9.37;;;7.80;;
7939;SDS011;4015;48.888;9.226;2022-11-13T15:15:45;9.53;;;8.27;;
7939;SDS011;4015;48.888;9.226;2022-11-13T15:18:15;10.93;;;8.00;;
7939;SDS011;4015;48.888;9.226;2022-11-13T15:20:42;8.60;;;7.80;;
7939;SDS011;4015;48.888;9.226;2022-11-13T15:23:10;8.73;;;7.83;;
7939;SDS011;4015;48.888;9.226;2022-11-13T15:25:37;8.10;;;7.33;;
7939;SDS011;4015;48.888;9.226;2022-11-13T15:28:03;8.63;;;7.83;;
7939;SDS011;4015;48.888;9.226;2022-11-13T15:30:28;10.83;;;8.40;;
7939;SDS011;4015;48.888;9.226;2022-11-13T15:32:54;7.93;;;6.97;;
7939;SDS011;4015;48.888;9.226;2022-11-13T15:38:13;16.97;;;13.63;;
7939;SDS011;4015;48.888;9.226;2022-11-13T15:40:44;13.30;;;11.93;;
7939;SDS011;4015;48.888;9.226;2022-11-13T15:43:11;10.97;;;9.17;;
7939;SDS011;4015;48.888;9.226;2022-11-13T15:45:43;9.60;;;8.60;;
7939;SDS011;4015;48.888;9.226;2022-11-13T15:48:08;11.30;;;8.57;;
7939;SDS011;4015;48.888;9.226;2022-11-13T15:50:34;11.43;;;8.37;;
7939;SDS011;4015;48.888;9.226;2022-11-13T15:52:59;9.77;;;8.70;;
7939;SDS011;4015;48.888;9.226;2022-11-13T15:59:12;9.93;;;8.93;;
7939;SDS011;4015;48.888;9.226;2022-11-13T16:01:38;9.90;;;8.90;;
7939;SDS011;4015;48.888;9.226;2022-11-13T16:04:05;10.13;;;9.10;;
7939;SDS011;4015;48.888;9.226;2022-11-13T16:06:31;10.33;;;9.27;;
7939;SDS011;4015;48.888;9.226;2022-11-13T16:08:58;11.37;;;8.10;;
7939;SDS011;4015;48.888;9.226;2022-11-13T16:11:26;10.70;;;9.60;;
7939;SDS011;4015;48.888;9.226;2022-11-13T16:13:57;12.83;;;10.90;;
7939;SDS011;4015;48.888;9.226;2022-11-13T16:16:23;18.33;;;14.70;;
7939;SDS011;4015;48.888;9.226;2022-11-13T16:18:50;12.67;;;10.13;;
7939;SDS011;4015;48.888;9.226;2022-11-13T16:21:17;12.13;;;10.27;;
7939;SDS011;4015;48.888;9.226;2022-11-13T16:23:43;10.63;;;9.43;;
7939;SDS011;4015;48.888;9.226;2022-11-13T16:26:13;14.97;;;10.37;;
7939;SDS011;4015;48.888;9.226;2022-11-13T16:31:42;11.30;;;10.07;;
7939;SDS011;4015;48.888;9.226;2022-11-13T16:34:07;10.23;;;9.23;;
7939;SDS011;4015;48.888;9.226;2022-11-13T16:36:33;10.47;;;9.37;;
7939;SDS011;4015;48.888;9.226;2022-11-13T16:38:58;12.53;;;10.20;;
7939;SDS011;4015;48.888;9.226;2022-11-13T16:41:24;10.57;;;9.47;;
7939;SDS011;4015;48.888;9.226;2022-11-13T16:43:49;12.03;;;9.63;;
7939;SDS011;4015;48.888;9.226;2022-11-13T16:46:27;20.27;;;11.53;;